CheckWX is a tool to help pilots better visualize weather data.  It is not intended as a substitute for an official pre-flight weather briefing.

15:13:39 UTC

KMKL METAR
Mc Kellar-Sipes Regional Airport
Jackson, Tennessee, USA
Current

21 mins ago

KMKL 261453Z 23009KT 10SM CLR 29/21 A3013 RMK AO2 SLP197 T02890211 55004 $
Observed
May-26 @ 14:53 UTC
Wind
  • 230° at 9 KTS
Visibility
10 SM
Flight Rules
VFR
Cloud Levels
  • Clear skies
Temperature
29°C / 84°F
Dewpoint
21°C / 70°F
Heat Index
31°C / 88°F
Humidity
62%
Altimeter
30.13" Hg
Pressure
1020.32 hPa
Previous

1 hour ago

KMKL 261353Z 20008KT 10SM CLR 27/20 A3012 RMK AO2 SLP194 T02720200 $
Observed
May-26 @ 13:53 UTC
Wind
  • 200° at 8 KTS
Visibility
10 SM
Flight Rules
VFR
Cloud Levels
  • Clear skies
Temperature
27°C / 81°F
Dewpoint
20°C / 68°F
Heat Index
29°C / 84°F
Humidity
66%
Altimeter
30.12" Hg
Pressure
1020.02 hPa
Previous

2 hours ago

KMKL 261253Z 22006KT 10SM CLR 24/20 A3014 RMK AO2 SLP201 T02440200 $
Observed
May-26 @ 12:53 UTC
Wind
  • 220° at 6 KTS
Visibility
10 SM
Flight Rules
VFR
Cloud Levels
  • Clear skies
Temperature
24°C / 75°F
Dewpoint
20°C / 68°F
Humidity
78%
Altimeter
30.14" Hg
Pressure
1020.62 hPa